sensor_id;sensor_type;location;lat;lon;timestamp;pressure;altitude;pressure_sealevel;temperature;humidity
49393;BME280;35268;42.642;23.308;2023-04-06T00:01:50;93635.16;;;-1.44;67.62
49393;BME280;35268;42.642;23.308;2023-04-06T00:04:16;93628.56;;;-1.47;67.28
49393;BME280;35268;42.642;23.308;2023-04-06T00:06:41;93641.84;;;-1.53;67.41
49393;BME280;35268;42.642;23.308;2023-04-06T00:09:07;93615.94;;;-1.55;67.78
49393;BME280;35268;42.642;23.308;2023-04-06T00:11:33;93616.44;;;-1.58;67.57
49393;BME280;35268;42.642;23.308;2023-04-06T00:13:58;93606.22;;;-1.59;67.03
49393;BME280;35268;42.642;23.308;2023-04-06T00:16:24;93608.41;;;-1.51;67.04
49393;BME280;35268;42.642;23.308;2023-04-06T00:18:49;93600.31;;;-1.50;67.16
49393;BME280;35268;42.642;23.308;2023-04-06T00:21:15;93611.25;;;-1.53;67.05
49393;BME280;35268;42.642;23.308;2023-04-06T00:23:41;93600.31;;;-1.50;67.22
49393;BME280;35268;42.642;23.308;2023-04-06T00:26:06;93597.16;;;-1.52;66.92
49393;BME280;35268;42.642;23.308;2023-04-06T00:28:32;93603.72;;;-1.49;66.92
49393;BME280;35268;42.642;23.308;2023-04-06T00:30:57;93584.13;;;-1.47;67.00
49393;BME280;35268;42.642;23.308;2023-04-06T00:33:23;93590.84;;;-1.56;67.04
49393;BME280;35268;42.642;23.308;2023-04-06T00:35:48;93591.69;;;-1.50;67.40
49393;BME280;35268;42.642;23.308;2023-04-06T00:38:15;93601.41;;;-1.46;67.61
49393;BME280;35268;42.642;23.308;2023-04-06T00:40:41;93603.03;;;-1.39;67.65
49393;BME280;35268;42.642;23.308;2023-04-06T00:43:07;93614.94;;;-1.49;66.79
49393;BME280;35268;42.642;23.308;2023-04-06T00:45:34;93591.69;;;-1.50;67.32
49393;BME280;35268;42.642;23.308;2023-04-06T00:48:00;93597.19;;;-1.47;67.12
49393;BME280;35268;42.642;23.308;2023-04-06T00:50:27;93601.88;;;-1.49;67.66
49393;BME280;35268;42.642;23.308;2023-04-06T00:52:52;93588.16;;;-1.61;67.94
49393;BME280;35268;42.642;23.308;2023-04-06T00:55:18;93593.56;;;-1.68;68.43
49393;BME280;35268;42.642;23.308;2023-04-06T00:57:44;93591.84;;;-1.57;68.30
49393;BME280;35268;42.642;23.308;2023-04-06T01:00:09;93596.06;;;-1.56;67.98
49393;BME280;35268;42.642;23.308;2023-04-06T01:02:36;93594.75;;;-1.58;68.35
49393;BME280;35268;42.642;23.308;2023-04-06T01:05:01;93593.88;;;-1.64;68.93
49393;BME280;35268;42.642;23.308;2023-04-06T01:07:27;93576.38;;;-1.64;68.78
49393;BME280;35268;42.642;23.308;2023-04-06T01:09:53;93579.66;;;-1.73;68.95
49393;BME280;35268;42.642;23.308;2023-04-06T01:12:19;93580.28;;;-1.66;68.89
49393;BME280;35268;42.642;23.308;2023-04-06T01:14:45;93575.28;;;-1.68;68.73
49393;BME280;35268;42.642;23.308;2023-04-06T01:17:10;93581.00;;;-1.71;68.91
49393;BME280;35268;42.642;23.308;2023-04-06T01:19:36;93576.50;;;-1.75;69.13
49393;BME280;35268;42.642;23.308;2023-04-06T01:22:01;93572.13;;;-1.70;69.41
49393;BME280;35268;42.642;23.308;2023-04-06T01:24:27;93568.72;;;-1.70;69.67
49393;BME280;35268;42.642;23.308;2023-04-06T01:26:52;93575.28;;;-1.68;69.62
49393;BME280;35268;42.642;23.308;2023-04-06T01:29:18;93566.97;;;-1.65;69.69
49393;BME280;35268;42.642;23.308;2023-04-06T01:31:43;93568.22;;;-1.67;69.63
49393;BME280;35268;42.642;23.308;2023-04-06T01:34:09;93567.25;;;-1.61;69.38
49393;BME280;35268;42.642;23.308;2023-04-06T01:36:34;93566.78;;;-1.58;69.41
49393;BME280;35268;42.642;23.308;2023-04-06T01:39:00;93566.00;;;-1.58;69.19
49393;BME280;35268;42.642;23.308;2023-04-06T01:41:25;93568.59;;;-1.58;69.54
49393;BME280;35268;42.642;23.308;2023-04-06T01:43:51;93560.50;;;-1.57;69.50
49393;BME280;35268;42.642;23.308;2023-04-06T01:46:20;93564.50;;;-1.49;69.61
49393;BME280;35268;42.642;23.308;2023-04-06T01:48:45;93557.41;;;-1.54;69.72
49393;BME280;35268;42.642;23.308;2023-04-06T01:51:10;93559.50;;;-1.51;69.75
49393;BME280;35268;42.642;23.308;2023-04-06T01:53:36;93559.78;;;-1.52;69.25
49393;BME280;35268;42.642;23.308;2023-04-06T01:56:01;93555.22;;;-1.62;69.99
49393;BME280;35268;42.642;23.308;2023-04-06T01:58:27;93545.75;;;-1.68;69.58
49393;BME280;35268;42.642;23.308;2023-04-06T02:00:52;93558.38;;;-1.60;69.92
49393;BME280;35268;42.642;23.308;2023-04-06T02:03:18;93556.06;;;-1.56;69.80
49393;BME280;35268;42.642;23.308;2023-04-06T02:05:43;93569.16;;;-1.56;69.78
49393;BME280;35268;42.642;23.308;2023-04-06T02:08:09;93550.59;;;-1.55;69.54
49393;BME280;35268;42.642;23.308;2023-04-06T02:10:34;93559.72;;;-1.57;69.73
49393;BME280;35268;42.642;23.308;2023-04-06T02:13:00;93563.31;;;-1.64;70.02
49393;BME280;35268;42.642;23.308;2023-04-06T02:15:26;93559.47;;;-1.56;69.94
49393;BME280;35268;42.642;23.308;2023-04-06T02:17:52;93550.88;;;-1.51;69.94
49393;BME280;35268;42.642;23.308;2023-04-06T02:20:18;93565.84;;;-1.47;69.44
49393;BME280;35268;42.642;23.308;2023-04-06T02:22:43;93562.31;;;-1.57;69.64
49393;BME280;35268;42.642;23.308;2023-04-06T02:25:09;93568.34;;;-1.57;69.90
49393;BME280;35268;42.642;23.308;2023-04-06T02:27:35;93549.31;;;-1.52;69.79
49393;BME280;35268;42.642;23.308;2023-04-06T02:30:04;93565.78;;;-1.52;69.82
49393;BME280;35268;42.642;23.308;2023-04-06T02:32:30;93543.59;;;-1.49;69.61
49393;BME280;35268;42.642;23.308;2023-04-06T02:34:55;93545.19;;;-1.48;69.53
49393;BME280;35268;42.642;23.308;2023-04-06T02:37:21;93563.97;;;-1.51;69.53
49393;BME280;35268;42.642;23.308;2023-04-06T02:39:48;93558.00;;;-1.47;69.71
49393;BME280;35268;42.642;23.308;2023-04-06T02:42:13;93549.13;;;-1.46;69.45
49393;BME280;35268;42.642;23.308;2023-04-06T02:44:41;93547.00;;;-1.49;69.95
49393;BME280;35268;42.642;23.308;2023-04-06T02:47:06;93574.72;;;-1.48;69.52
49393;BME280;35268;42.642;23.308;2023-04-06T02:49:32;93545.66;;;-1.51;69.45
49393;BME280;35268;42.642;23.308;2023-04-06T02:51:57;93545.44;;;-1.50;69.30
49393;BME280;35268;42.642;23.308;2023-04-06T02:54:23;93541.28;;;-1.46;69.72
49393;BME280;35268;42.642;23.308;2023-04-06T02:56:48;93540.19;;;-1.50;69.92
49393;BME280;35268;42.642;23.308;2023-04-06T02:59:13;93533.44;;;-1.46;69.54
49393;BME280;35268;42.642;23.308;2023-04-06T03:01:39;93542.25;;;-1.52;69.23
49393;BME280;35268;42.642;23.308;2023-04-06T03:04:05;93555.97;;;-1.39;69.57
49393;BME280;35268;42.642;23.308;2023-04-06T03:06:31;93534.53;;;-1.42;69.32
49393;BME280;35268;42.642;23.308;2023-04-06T03:08:56;93538.22;;;-1.37;69.80
49393;BME280;35268;42.642;23.308;2023-04-06T03:11:22;93548.19;;;-1.34;69.17
49393;BME280;35268;42.642;23.308;2023-04-06T03:13:47;93529.84;;;-1.39;69.28
49393;BME280;35268;42.642;23.308;2023-04-06T03:16:12;93534.53;;;-1.42;69.80
49393;BME280;35268;42.642;23.308;2023-04-06T03:18:38;93545.47;;;-1.45;69.42
49393;BME280;35268;42.642;23.308;2023-04-06T03:21:03;93547.53;;;-1.47;69.74
49393;BME280;35268;42.642;23.308;2023-04-06T03:23:29;93545.91;;;-1.53;70.04
49393;BME280;35268;42.642;23.308;2023-04-06T03:25:54;93544.34;;;-1.54;70.05
49393;BME280;35268;42.642;23.308;2023-04-06T03:28:20;93533.38;;;-1.51;70.17
49393;BME280;35268;42.642;23.308;2023-04-06T03:30:46;93552.28;;;-1.44;69.69
49393;BME280;35268;42.642;23.308;2023-04-06T03:33:11;93539.41;;;-1.50;69.37
49393;BME280;35268;42.642;23.308;2023-04-06T03:35:37;93554.59;;;-1.47;69.62
49393;BME280;35268;42.642;23.308;2023-04-06T03:38:05;93543.59;;;-1.49;69.98
49393;BME280;35268;42.642;23.308;2023-04-06T03:40:31;93562.13;;;-1.51;69.37
49393;BME280;35268;42.642;23.308;2023-04-06T03:42:56;93544.38;;;-1.49;69.24
49393;BME280;35268;42.642;23.308;2023-04-06T03:45:22;93536.50;;;-1.54;70.16
49393;BME280;35268;42.642;23.308;2023-04-06T03:47:47;93543.34;;;-1.48;69.74
49393;BME280;35268;42.642;23.308;2023-04-06T03:50:13;93549.16;;;-1.41;69.26
49393;BME280;35268;42.642;23.308;2023-04-06T03:52:38;93545.47;;;-1.45;69.41
49393;BME280;35268;42.642;23.308;2023-04-06T03:55:04;93548.38;;;-1.41;69.10
49393;BME280;35268;42.642;23.308;2023-04-06T03:57:30;93542.72;;;-1.33;69.38
49393;BME280;35268;42.642;23.308;2023-04-06T03:59:55;93545.56;;;-1.34;68.81
49393;BME280;35268;42.642;23.308;2023-04-06T04:02:21;93539.78;;;-1.36;68.78
49393;BME280;35268;42.642;23.308;2023-04-06T04:04:46;93546.09;;;-1.32;68.53
49393;BME280;35268;42.642;23.308;2023-04-06T04:07:12;93559.47;;;-1.29;68.64
49393;BME280;35268;42.642;23.308;2023-04-06T04:09:37;93546.16;;;-1.27;68.42
49393;BME280;35268;42.642;23.308;2023-04-06T04:12:03;93550.63;;;-1.28;68.86
49393;BME280;35268;42.642;23.308;2023-04-06T04:14:28;93542.53;;;-1.26;68.24
49393;BME280;35268;42.642;23.308;2023-04-06T04:16:54;93557.97;;;-1.25;68.48
49393;BME280;35268;42.642;23.308;2023-04-06T04:19:19;93537.41;;;-1.16;68.29
49393;BME280;35268;42.642;23.308;2023-04-06T04:21:46;93552.59;;;-1.13;68.08
49393;BME280;35268;42.642;23.308;2023-04-06T04:24:12;93551.03;;;-1.14;67.85
49393;BME280;35268;42.642;23.308;2023-04-06T04:26:38;93547.06;;;-1.16;67.74
49393;BME280;35268;42.642;23.308;2023-04-06T04:29:04;93551.81;;;-1.13;68.05
49393;BME280;35268;42.642;23.308;2023-04-06T04:31:32;93559.94;;;-1.10;68.02
49393;BME280;35268;42.642;23.308;2023-04-06T04:33:59;93558.34;;;-1.11;67.70
49393;BME280;35268;42.642;23.308;2023-04-06T04:36:25;93566.00;;;-1.04;67.54
49393;BME280;35268;42.642;23.308;2023-04-06T04:38:52;93558.66;;;-1.07;67.71
49393;BME280;35268;42.642;23.308;2023-04-06T04:41:17;93560.59;;;-0.97;67.24
49393;BME280;35268;42.642;23.308;2023-04-06T04:43:43;93551.19;;;-0.93;67.20
49393;BME280;35268;42.642;23.308;2023-04-06T04:46:09;93569.25;;;-0.92;67.19
49393;BME280;35268;42.642;23.308;2023-04-06T04:48:34;93549.06;;;-0.96;67.06
49393;BME280;35268;42.642;23.308;2023-04-06T04:51:00;93564.22;;;-0.98;67.33
49393;BME280;35268;42.642;23.308;2023-04-06T04:53:25;93551.19;;;-0.93;67.23
49393;BME280;35268;42.642;23.308;2023-04-06T04:55:51;93552.53;;;-0.91;66.90
49393;BME280;35268;42.642;23.308;2023-04-06T04:58:16;93530.28;;;-0.88;66.58
49393;BME280;35268;42.642;23.308;2023-04-06T05:00:43;93546.03;;;-0.83;66.49
49393;BME280;35268;42.642;23.308;2023-04-06T05:03:14;93541.38;;;-0.76;66.31
49393;BME280;35268;42.642;23.308;2023-04-06T05:05:41;93540.59;;;-0.76;66.86
49393;BME280;35268;42.642;23.308;2023-04-06T05:08:07;93543.53;;;-0.68;66.43
49393;BME280;35268;42.642;23.308;2023-04-06T05:10:32;93547.41;;;-0.75;66.64
49393;BME280;35268;42.642;23.308;2023-04-06T05:12:59;93551.94;;;-0.66;66.48
49393;BME280;35268;42.642;23.308;2023-04-06T05:15:24;93552.47;;;-0.64;66.28
49393;BME280;35268;42.642;23.308;2023-04-06T05:17:50;93545.19;;;-0.56;66.33
49393;BME280;35268;42.642;23.308;2023-04-06T05:20:16;93543.66;;;-0.52;66.02
49393;BME280;35268;42.642;23.308;2023-04-06T05:22:41;93541.09;;;-0.42;65.50
49393;BME280;35268;42.642;23.308;2023-04-06T05:25:07;93545.41;;;-0.26;65.54
49393;BME280;35268;42.642;23.308;2023-04-06T05:27:32;93548.63;;;-0.08;64.62
49393;BME280;35268;42.642;23.308;2023-04-06T05:29:58;93537.41;;;-0.04;64.60
49393;BME280;35268;42.642;23.308;2023-04-06T05:32:23;93544.28;;;0.13;64.62
49393;BME280;35268;42.642;23.308;2023-04-06T05:34:49;93543.50;;;0.17;63.87
49393;BME280;35268;42.642;23.308;2023-04-06T05:37:15;93563.19;;;0.20;64.43
49393;BME280;35268;42.642;23.308;2023-04-06T05:39:41;93551.66;;;0.26;64.01
49393;BME280;35268;42.642;23.308;2023-04-06T05:42:06;93544.66;;;0.37;64.23
49393;BME280;35268;42.642;23.308;2023-04-06T05:44:32;93545.69;;;0.31;64.31
49393;BME280;35268;42.642;23.308;2023-04-06T05:46:57;93548.06;;;0.43;63.94
49393;BME280;35268;42.642;23.308;2023-04-06T05:49:23;93546.25;;;0.43;64.37
49393;BME280;35268;42.642;23.308;2023-04-06T05:51:48;93538.88;;;0.35;63.88
49393;BME280;35268;42.642;23.308;2023-04-06T05:54:14;93540.44;;;0.36;63.89
49393;BME280;35268;42.642;23.308;2023-04-06T05:56:39;93557.47;;;0.33;63.67
49393;BME280;35268;42.642;23.308;2023-04-06T05:59:05;93533.59;;;0.25;64.36
49393;BME280;35268;42.642;23.308;2023-04-06T06:01:30;93539.88;;;0.24;64.86
49393;BME280;35268;42.642;23.308;2023-04-06T06:03:56;93538.31;;;0.28;65.02
49393;BME280;35268;42.642;23.308;2023-04-06T06:06:21;93528.91;;;0.37;64.89
49393;BME280;35268;42.642;23.308;2023-04-06T06:08:47;93535.50;;;0.50;64.84
49393;BME280;35268;42.642;23.308;2023-04-06T06:11:12;93532.59;;;0.46;64.02
49393;BME280;35268;42.642;23.308;2023-04-06T06:13:38;93537.59;;;0.48;64.33
49393;BME280;35268;42.642;23.308;2023-04-06T06:16:04;93541.00;;;0.43;64.07
49393;BME280;35268;42.642;23.308;2023-04-06T06:18:30;93526.81;;;0.44;63.84
49393;BME280;35268;42.642;23.308;2023-04-06T06:20:56;93531.00;;;0.40;64.32
49393;BME280;35268;42.642;23.308;2023-04-06T06:23:21;93543.91;;;0.52;65.13
49393;BME280;35268;42.642;23.308;2023-04-06T06:25:46;93541.59;;;0.66;64.16
49393;BME280;35268;42.642;23.308;2023-04-06T06:28:12;93533.19;;;0.69;64.54
49393;BME280;35268;42.642;23.308;2023-04-06T06:30:37;93530.06;;;0.82;63.89
49393;BME280;35268;42.642;23.308;2023-04-06T06:33:03;93537.41;;;0.85;63.79
49393;BME280;35268;42.642;23.308;2023-04-06T06:35:28;93530.34;;;0.86;62.58
49393;BME280;35268;42.642;23.308;2023-04-06T06:37:54;93531.41;;;0.90;63.39
49393;BME280;35268;42.642;23.308;2023-04-06T06:40:19;93535.31;;;0.87;62.55
49393;BME280;35268;42.642;23.308;2023-04-06T06:42:48;93528.25;;;0.93;62.22
49393;BME280;35268;42.642;23.308;2023-04-06T06:45:14;93529.56;;;1.00;62.54
49393;BME280;35268;42.642;23.308;2023-04-06T06:47:39;93537.19;;;1.07;61.74
49393;BME280;35268;42.642;23.308;2023-04-06T06:50:06;93543.22;;;1.18;62.11
49393;BME280;35268;42.642;23.308;2023-04-06T06:52:32;93545.06;;;1.28;60.98
49393;BME280;35268;42.642;23.308;2023-04-06T06:54:57;93547.69;;;1.12;61.76
49393;BME280;35268;42.642;23.308;2023-04-06T06:57:22;93540.59;;;1.18;61.93
49393;BME280;35268;42.642;23.308;2023-04-06T06:59:48;93537.72;;;1.14;62.04
49393;BME280;35268;42.642;23.308;2023-04-06T07:02:13;93538.22;;;1.01;62.08
49393;BME280;35268;42.642;23.308;2023-04-06T07:04:39;93523.78;;;1.04;62.06
49393;BME280;35268;42.642;23.308;2023-04-06T07:07:05;93522.22;;;1.08;62.87
49393;BME280;35268;42.642;23.308;2023-04-06T07:09:30;93531.13;;;1.12;62.38
49393;BME280;35268;42.642;23.308;2023-04-06T07:11:56;93521.44;;;1.23;62.89
49393;BME280;35268;42.642;23.308;2023-04-06T07:14:22;93524.59;;;1.25;62.05
49393;BME280;35268;42.642;23.308;2023-04-06T07:16:47;93527.75;;;1.22;61.93
49393;BME280;35268;42.642;23.308;2023-04-06T07:19:14;93519.09;;;1.11;61.72
49393;BME280;35268;42.642;23.308;2023-04-06T07:21:39;93523.78;;;1.24;62.27
49393;BME280;35268;42.642;23.308;2023-04-06T07:24:05;93523.53;;;1.41;62.24
49393;BME280;35268;42.642;23.308;2023-04-06T07:26:30;93516.97;;;1.49;61.72
49393;BME280;35268;42.642;23.308;2023-04-06T07:28:56;93515.91;;;1.60;61.23
49393;BME280;35268;42.642;23.308;2023-04-06T07:31:21;93526.66;;;1.69;61.01
49393;BME280;35268;42.642;23.308;2023-04-06T07:33:47;93523.53;;;1.51;60.26
49393;BME280;35268;42.642;23.308;2023-04-06T07:36:12;93519.59;;;1.54;60.55
49393;BME280;35268;42.642;23.308;2023-04-06T07:38:38;93533.78;;;1.48;60.57
49393;BME280;35268;42.642;23.308;2023-04-06T07:41:03;93506.22;;;1.45;60.67
49393;BME280;35268;42.642;23.308;2023-04-06T07:43:29;93515.38;;;1.58;61.37
49393;BME280;35268;42.642;23.308;2023-04-06T07:45:55;93516.69;;;1.60;60.03
49393;BME280;35268;42.642;23.308;2023-04-06T07:48:22;93526.41;;;1.70;60.70
49393;BME280;35268;42.642;23.308;2023-04-06T07:50:48;93519.28;;;1.81;60.75
49393;BME280;35268;42.642;23.308;2023-04-06T07:53:13;93505.31;;;1.96;61.37
49393;BME280;35268;42.642;23.308;2023-04-06T07:55:39;93533.97;;;1.92;58.93
49393;BME280;35268;42.642;23.308;2023-04-06T07:58:04;93509.03;;;1.90;60.07
49393;BME280;35268;42.642;23.308;2023-04-06T08:00:30;93514.25;;;2.00;59.42
49393;BME280;35268;42.642;23.308;2023-04-06T08:02:56;93518.44;;;2.06;59.03
49393;BME280;35268;42.642;23.308;2023-04-06T08:05:21;93517.88;;;2.09;57.46
49393;BME280;35268;42.642;23.308;2023-04-06T08:07:47;93506.34;;;2.05;57.53
49393;BME280;35268;42.642;23.308;2023-04-06T08:10:12;93532.91;;;1.98;58.44
49393;BME280;35268;42.642;23.308;2023-04-06T08:12:38;93511.59;;;2.10;58.32
49393;BME280;35268;42.642;23.308;2023-04-06T08:15:06;93526.78;;;2.29;59.62
49393;BME280;35268;42.642;23.308;2023-04-06T08:17:32;93510.22;;;2.28;56.48
49393;BME280;35268;42.642;23.308;2023-04-06T08:19:59;93524.19;;;2.13;58.14
49393;BME280;35268;42.642;23.308;2023-04-06T08:22:24;93523.16;;;2.04;58.64
49393;BME280;35268;42.642;23.308;2023-04-06T08:24:50;93512.88;;;2.13;58.34
49393;BME280;35268;42.642;23.308;2023-04-06T08:27:16;93535.22;;;2.20;58.59
49393;BME280;35268;42.642;23.308;2023-04-06T08:29:41;93517.81;;;2.30;58.97
49393;BME280;35268;42.642;23.308;2023-04-06T08:32:07;93541.44;;;2.45;58.41
49393;BME280;35268;42.642;23.308;2023-04-06T08:34:33;93531.44;;;2.42;57.93
49393;BME280;35268;42.642;23.308;2023-04-06T08:36:58;93522.41;;;2.58;57.43
49393;BME280;35268;42.642;23.308;2023-04-06T08:39:24;93543.03;;;2.41;57.07
49393;BME280;35268;42.642;23.308;2023-04-06T08:41:53;93537.19;;;2.49;56.19
49393;BME280;35268;42.642;23.308;2023-04-06T08:44:22;93536.66;;;2.52;56.53
49393;BME280;35268;42.642;23.308;2023-04-06T08:46:47;93531.13;;;2.59;57.13
49393;BME280;35268;42.642;23.308;2023-04-06T08:49:14;93539.31;;;2.47;56.39
49393;BME280;35268;42.642;23.308;2023-04-06T08:51:41;93553.00;;;2.49;58.25
49393;BME280;35268;42.642;23.308;2023-04-06T08:54:07;93531.63;;;2.56;56.41
49393;BME280;35268;42.642;23.308;2023-04-06T08:56:35;93531.31;;;2.68;57.96
49393;BME280;35268;42.642;23.308;2023-04-06T08:59:02;93518.38;;;2.76;55.36
49393;BME280;35268;42.642;23.308;2023-04-06T09:01:29;93521.53;;;2.78;56.15
49393;BME280;35268;42.642;23.308;2023-04-06T09:03:59;93518.75;;;2.99;57.35
49393;BME280;35268;42.642;23.308;2023-04-06T09:06:26;93516.09;;;3.04;55.37
49393;BME280;35268;42.642;23.308;2023-04-06T09:08:52;93517.13;;;3.08;55.42
49393;BME280;35268;42.642;23.308;2023-04-06T09:11:18;93528.41;;;3.14;54.60
49393;BME280;35268;42.642;23.308;2023-04-06T09:13:52;93524.09;;;2.89;54.40
49393;BME280;35268;42.642;23.308;2023-04-06T09:16:18;93533.25;;;2.96;55.19
49393;BME280;35268;42.642;23.308;2023-04-06T09:18:45;93521.06;;;3.11;54.75
49393;BME280;35268;42.642;23.308;2023-04-06T09:21:11;93528.84;;;3.26;54.99
49393;BME280;35268;42.642;23.308;2023-04-06T09:23:37;93527.50;;;3.29;54.02
49393;BME280;35268;42.642;23.308;2023-04-06T09:26:12;93519.94;;;3.22;53.19
49393;BME280;35268;42.642;23.308;2023-04-06T09:28:45;93529.97;;;3.20;52.82
49393;BME280;35268;42.642;23.308;2023-04-06T09:31:13;93526.94;;;2.97;53.10
49393;BME280;35268;42.642;23.308;2023-04-06T09:33:40;93530.81;;;3.10;54.24
49393;BME280;35268;42.642;23.308;2023-04-06T09:36:06;93529.38;;;3.28;53.82
49393;BME280;35268;42.642;23.308;2023-04-06T09:38:36;93522.84;;;3.20;53.28
49393;BME280;35268;42.642;23.308;2023-04-06T09:41:01;93519.06;;;2.92;53.65
49393;BME280;35268;42.642;23.308;2023-04-06T09:43:27;93513.72;;;3.08;54.05
49393;BME280;35268;42.642;23.308;2023-04-06T09:45:53;93522.31;;;3.18;53.54
49393;BME280;35268;42.642;23.308;2023-04-06T09:48:20;93525.72;;;3.24;52.70
49393;BME280;35268;42.642;23.308;2023-04-06T09:50:49;93515.13;;;3.29;52.82
49393;BME280;35268;42.642;23.308;2023-04-06T09:53:18;93527.28;;;3.25;53.10
49393;BME280;35268;42.642;23.308;2023-04-06T09:55:45;93519.88;;;3.27;53.50
49393;BME280;35268;42.642;23.308;2023-04-06T09:58:13;93537.13;;;3.44;53.17
49393;BME280;35268;42.642;23.308;2023-04-06T10:01:29;93516.16;;;3.33;53.15
49393;BME280;35268;42.642;23.308;2023-04-06T10:03:39;93538.25;;;3.37;52.31
49393;BME280;35268;42.642;23.308;2023-04-06T10:06:11;93519.00;;;3.42;51.55
49393;BME280;35268;42.642;23.308;2023-04-06T10:08:40;93522.69;;;3.41;52.47
49393;BME280;35268;42.642;23.308;2023-04-06T10:11:07;93532.53;;;3.25;51.33
49393;BME280;35268;42.642;23.308;2023-04-06T10:13:34;93517.81;;;3.24;52.87
49393;BME280;35268;42.642;23.308;2023-04-06T10:16:00;93516.72;;;3.30;53.66
49393;BME280;35268;42.642;23.308;2023-04-06T10:18:29;93510.56;;;3.40;52.57
49393;BME280;35268;42.642;23.308;2023-04-06T10:20:57;93511.78;;;3.53;52.35
49393;BME280;35268;42.642;23.308;2023-04-06T10:23:37;93517.50;;;3.60;53.27
49393;BME280;35268;42.642;23.308;2023-04-06T10:26:05;93511.13;;;3.66;51.19
49393;BME280;35268;42.642;23.308;2023-04-06T10:28:32;93512.69;;;3.67;51.79
49393;BME280;35268;42.642;23.308;2023-04-06T10:31:00;93505.63;;;3.63;49.85
49393;BME280;35268;42.642;23.308;2023-04-06T10:33:26;93506.00;;;3.51;52.09
49393;BME280;35268;42.642;23.308;2023-04-06T10:35:52;93495.31;;;3.37;52.31
49393;BME280;35268;42.642;23.308;2023-04-06T10:38:19;93508.66;;;3.46;52.24
49393;BME280;35268;42.642;23.308;2023-04-06T10:40:47;93494.63;;;3.55;51.52
49393;BME280;35268;42.642;23.308;2023-04-06T10:45:40;93492.97;;;3.89;50.92
49393;BME280;35268;42.642;23.308;2023-04-06T10:48:18;93493.97;;;3.93;49.83
49393;BME280;35268;42.642;23.308;2023-04-06T10:50:48;93488.63;;;4.03;51.47
49393;BME280;35268;42.642;23.308;2023-04-06T10:53:21;93493.81;;;4.08;50.90
49393;BME280;35268;42.642;23.308;2023-04-06T10:55:49;93510.28;;;4.00;51.02
49393;BME280;35268;42.642;23.308;2023-04-06T10:58:14;93484.41;;;4.02;51.49
49393;BME280;35268;42.642;23.308;2023-04-06T11:00:45;93500.50;;;4.25;51.00
49393;BME280;35268;42.642;23.308;2023-04-06T11:03:11;93499.56;;;4.15;51.62
49393;BME280;35268;42.642;23.308;2023-04-06T11:05:36;93482.09;;;4.19;51.53
49393;BME280;35268;42.642;23.308;2023-04-06T11:08:02;93487.31;;;4.25;50.35
49393;BME280;35268;42.642;23.308;2023-04-06T11:10:27;93475.13;;;4.29;50.25
49393;BME280;35268;42.642;23.308;2023-04-06T11:12:56;93484.66;;;4.25;49.68
49393;BME280;35268;42.642;23.308;2023-04-06T11:15:21;93484.88;;;4.09;50.67
49393;BME280;35268;42.642;23.308;2023-04-06T11:17:47;93482.38;;;4.18;51.18
49393;BME280;35268;42.642;23.308;2023-04-06T11:20:14;93476.72;;;4.30;50.55
49393;BME280;35268;42.642;23.308;2023-04-06T11:22:50;93481.84;;;4.40;49.85
49393;BME280;35268;42.642;23.308;2023-04-06T11:25:16;93470.34;;;4.31;49.59
49393;BME280;35268;42.642;23.308;2023-04-06T11:27:43;93478.25;;;4.31;50.54
49393;BME280;35268;42.642;23.308;2023-04-06T11:30:09;93475.41;;;4.27;50.61
49393;BME280;35268;42.642;23.308;2023-04-06T11:32:42;93464.03;;;4.32;50.55
49393;BME280;35268;42.642;23.308;2023-04-06T11:35:26;93457.25;;;4.45;49.60
49393;BME280;35268;42.642;23.308;2023-04-06T11:37:51;93476.34;;;4.36;49.67
49393;BME280;35268;42.642;23.308;2023-04-06T11:40:21;93464.44;;;4.39;50.99
49393;BME280;35268;42.642;23.308;2023-04-06T11:42:55;93462.44;;;4.31;50.82
49393;BME280;35268;42.642;23.308;2023-04-06T11:45:21;93458.28;;;4.25;49.94
49393;BME280;35268;42.642;23.308;2023-04-06T11:47:58;93460.44;;;4.22;50.13
49393;BME280;35268;42.642;23.308;2023-04-06T11:50:24;93454.72;;;4.15;50.47
49393;BME280;35268;42.642;23.308;2023-04-06T11:52:58;93449.00;;;4.08;49.89
49393;BME280;35268;42.642;23.308;2023-04-06T11:55:25;93461.25;;;3.99;50.10
49393;BME280;35268;42.642;23.308;2023-04-06T11:57:50;93449.69;;;3.95;50.43
49393;BME280;35268;42.642;23.308;2023-04-06T12:00:17;93462.06;;;3.94;51.01
49393;BME280;35268;42.642;23.308;2023-04-06T12:02:46;93453.66;;;3.92;49.87
49393;BME280;35268;42.642;23.308;2023-04-06T12:05:12;93460.13;;;3.81;50.82
49393;BME280;35268;42.642;23.308;2023-04-06T12:07:38;93454.16;;;3.70;51.34
49393;BME280;35268;42.642;23.308;2023-04-06T12:10:04;93444.84;;;3.78;51.34
49393;BME280;35268;42.642;23.308;2023-04-06T12:12:30;93453.50;;;3.84;51.39
49393;BME280;35268;42.642;23.308;2023-04-06T12:14:56;93456.53;;;3.96;51.20
49393;BME280;35268;42.642;23.308;2023-04-06T12:17:22;93454.22;;;3.89;50.30
49393;BME280;35268;42.642;23.308;2023-04-06T12:19:48;93449.69;;;3.95;50.83
49393;BME280;35268;42.642;23.308;2023-04-06T12:22:14;93452.59;;;3.93;50.60
49393;BME280;35268;42.642;23.308;2023-04-06T12:24:39;93446.97;;;4.00;50.50
49393;BME280;35268;42.642;23.308;2023-04-06T12:27:05;93451.25;;;3.96;51.15
49393;BME280;35268;42.642;23.308;2023-04-06T12:29:30;93451.41;;;3.80;51.21
49393;BME280;35268;42.642;23.308;2023-04-06T12:31:56;93446.47;;;3.74;51.47
49393;BME280;35268;42.642;23.308;2023-04-06T12:34:21;93448.84;;;3.75;51.59
49393;BME280;35268;42.642;23.308;2023-04-06T12:36:47;93441.44;;;3.77;51.54
49393;BME280;35268;42.642;23.308;2023-04-06T12:39:12;93456.78;;;3.70;51.11
49393;BME280;35268;42.642;23.308;2023-04-06T12:41:38;93454.25;;;3.60;51.03
49393;BME280;35268;42.642;23.308;2023-04-06T12:44:06;93447.94;;;3.61;50.91
49393;BME280;35268;42.642;23.308;2023-04-06T12:46:31;93434.97;;;3.65;51.27
49393;BME280;35268;42.642;23.308;2023-04-06T12:48:58;93432.03;;;3.66;51.55
49393;BME280;35268;42.642;23.308;2023-04-06T12:51:24;93443.72;;;3.60;49.64
49393;BME280;35268;42.642;23.308;2023-04-06T12:53:52;93440.56;;;3.58;49.73